createdAt,value
2019-03-26T00:02:23.518Z,5.50
2019-03-26T00:04:50.431Z,5.40
2019-03-26T00:07:17.121Z,5.40
2019-03-26T00:09:44.199Z,5.30
2019-03-26T00:12:11.068Z,5.30
2019-03-26T00:14:38.084Z,5.30
2019-03-26T00:17:05.077Z,5.30
2019-03-26T00:19:31.723Z,5.20
2019-03-26T00:21:59.711Z,5.20
2019-03-26T00:24:26.537Z,5.20
2019-03-26T00:26:52.984Z,5.10
2019-03-26T00:29:19.881Z,5.10
2019-03-26T00:31:46.728Z,5.10
2019-03-26T00:34:19.207Z,5.10
2019-03-26T00:36:42.316Z,5.10
2019-03-26T00:39:09.353Z,5.10
2019-03-26T00:41:36.362Z,5.10
2019-03-26T00:44:03.046Z,5.10
2019-03-26T00:46:30.058Z,5.10
2019-03-26T00:48:57.091Z,5.20
2019-03-26T00:51:23.759Z,5.20
2019-03-26T00:53:50.496Z,5.30
2019-03-26T00:56:17.152Z,5.30
2019-03-26T00:58:43.890Z,5.30
2019-03-26T01:01:10.534Z,5.30
2019-03-26T01:03:37.369Z,5.20
2019-03-26T01:06:03.909Z,5.10
2019-03-26T01:08:30.835Z,5.20
2019-03-26T01:10:57.425Z,5.10
2019-03-26T01:13:24.452Z,5.10
2019-03-26T01:15:51.448Z,5.20
2019-03-26T01:18:18.327Z,5.20
2019-03-26T01:20:44.993Z,5.10
2019-03-26T01:23:12.889Z,5.10
2019-03-26T01:25:39.797Z,5.10
2019-03-26T01:28:06.612Z,5.00
2019-03-26T01:30:33.694Z,4.70
2019-03-26T01:33:00.380Z,4.60
2019-03-26T01:35:27.156Z,4.60
2019-03-26T01:37:53.838Z,4.50
2019-03-26T01:40:20.760Z,4.40
2019-03-26T01:42:47.347Z,4.40
2019-03-26T01:45:14.069Z,4.40
2019-03-26T01:47:40.622Z,4.40
2019-03-26T01:50:07.166Z,4.50
2019-03-26T01:52:33.920Z,4.50
2019-03-26T01:55:00.468Z,4.60
2019-03-26T01:57:27.277Z,4.50
2019-03-26T01:59:53.956Z,4.60
2019-03-26T02:02:23.897Z,4.60
2019-03-26T02:05:00.009Z,4.60
2019-03-26T02:07:20.155Z,4.60
2019-03-26T02:09:47.127Z,4.60
2019-03-26T02:12:14.476Z,4.60
2019-03-26T02:14:41.139Z,4.60
2019-03-26T02:17:08.195Z,4.50
2019-03-26T02:19:34.756Z,4.50
2019-03-26T02:22:01.548Z,4.50
2019-03-26T02:24:28.511Z,4.30
2019-03-26T02:26:55.665Z,4.30
2019-03-26T02:29:22.537Z,4.40
2019-03-26T02:31:50.359Z,4.40
2019-03-26T02:34:17.013Z,4.30
2019-03-26T02:36:43.931Z,4.20
2019-03-26T02:39:10.632Z,4.20
2019-03-26T02:41:38.017Z,4.10
2019-03-26T02:44:05.206Z,3.90
2019-03-26T02:46:31.884Z,4.00
2019-03-26T02:48:58.697Z,4.10
2019-03-26T02:51:25.529Z,4.10
2019-03-26T02:53:52.452Z,3.90
2019-03-26T02:56:19.570Z,4.00
2019-03-26T02:58:46.566Z,3.90
2019-03-26T03:01:13.405Z,3.80
2019-03-26T03:03:39.984Z,3.70
2019-03-26T03:06:07.297Z,3.60
2019-03-26T03:08:34.276Z,3.40
2019-03-26T03:11:00.819Z,3.30
2019-03-26T03:13:27.811Z,3.20
2019-03-26T03:15:54.407Z,3.30
2019-03-26T03:18:21.089Z,3.30
2019-03-26T03:20:49.487Z,3.20
2019-03-26T03:23:16.593Z,3.10
2019-03-26T03:25:43.429Z,3.00
2019-03-26T03:28:10.128Z,3.00
2019-03-26T03:30:37.260Z,2.90
2019-03-26T03:33:04.714Z,2.90
2019-03-26T03:35:31.424Z,3.00
2019-03-26T03:37:58.437Z,3.00
2019-03-26T03:40:24.990Z,2.90
2019-03-26T03:42:51.487Z,2.90
2019-03-26T03:45:26.537Z,2.80
2019-03-26T03:47:53.308Z,2.90
2019-03-26T03:50:20.196Z,2.80
2019-03-26T03:52:46.835Z,2.80
2019-03-26T03:55:14.631Z,2.90
2019-03-26T03:57:41.306Z,2.90
2019-03-26T04:00:28.027Z,2.60
2019-03-26T04:02:54.712Z,2.50
2019-03-26T04:05:21.616Z,2.60
2019-03-26T04:07:48.364Z,2.50
2019-03-26T04:10:14.972Z,2.50
2019-03-26T04:12:42.076Z,2.50
2019-03-26T04:15:09.116Z,2.50
2019-03-26T04:17:35.680Z,2.50
2019-03-26T04:20:02.510Z,2.60
2019-03-26T04:22:29.203Z,2.70
2019-03-26T04:24:55.892Z,2.70
2019-03-26T04:27:22.414Z,2.60
2019-03-26T04:29:50.533Z,2.50
2019-03-26T04:32:17.043Z,2.50
2019-03-26T04:34:43.533Z,2.40
2019-03-26T04:37:10.575Z,2.30
2019-03-26T04:39:37.372Z,2.20
2019-03-26T04:42:04.360Z,2.20
2019-03-26T04:44:31.130Z,2.10
2019-03-26T04:46:57.860Z,2.10
2019-03-26T04:49:24.609Z,2.10
2019-03-26T04:51:51.162Z,2.00
2019-03-26T04:54:17.923Z,2.10
2019-03-26T04:56:44.927Z,2.10
2019-03-26T04:59:11.531Z,2.10
2019-03-26T05:01:38.207Z,1.80
2019-03-26T05:04:04.893Z,1.70
2019-03-26T05:06:37.814Z,2.00
2019-03-26T05:09:00.174Z,1.80
2019-03-26T05:11:26.934Z,2.00
2019-03-26T05:13:53.608Z,2.10
2019-03-26T05:16:20.807Z,2.00
2019-03-26T05:18:47.668Z,2.00
2019-03-26T05:21:14.502Z,2.00
2019-03-26T05:23:41.061Z,2.00
2019-03-26T05:26:08.137Z,2.10
2019-03-26T05:28:34.914Z,2.20
2019-03-26T05:31:01.601Z,2.20
2019-03-26T05:33:28.171Z,2.20
2019-03-26T05:35:54.952Z,2.20
2019-03-26T05:38:21.503Z,2.30
2019-03-26T05:40:48.019Z,2.40
2019-03-26T05:43:14.566Z,2.50
2019-03-26T05:45:41.244Z,2.60
2019-03-26T05:48:07.793Z,2.70
2019-03-26T05:50:34.508Z,2.80
2019-03-26T05:53:00.981Z,3.10
2019-03-26T05:55:27.530Z,3.40
2019-03-26T05:57:54.018Z,3.50
2019-03-26T06:00:22.504Z,3.60
2019-03-26T06:02:49.056Z,3.60
2019-03-26T06:05:15.653Z,3.70
2019-03-26T06:07:42.107Z,4.00
2019-03-26T06:10:08.814Z,4.40
2019-03-26T06:12:35.472Z,4.60
2019-03-26T06:15:06.804Z,4.80
2019-03-26T06:17:33.383Z,5.00
2019-03-26T06:20:00.317Z,5.20
2019-03-26T06:22:27.149Z,5.40
2019-03-26T06:24:53.780Z,5.50
2019-03-26T06:27:22.253Z,5.80
2019-03-26T06:29:48.682Z,5.90
2019-03-26T06:32:15.230Z,6.00
2019-03-26T06:34:41.888Z,6.20
2019-03-26T06:37:17.863Z,6.20
2019-03-26T06:39:37.120Z,6.30
2019-03-26T06:42:03.569Z,6.50
2019-03-26T06:44:30.148Z,6.50
2019-03-26T06:46:56.806Z,6.40
2019-03-26T06:49:23.552Z,6.70
2019-03-26T06:51:50.248Z,6.90
2019-03-26T06:54:16.925Z,7.00
2019-03-26T06:56:43.565Z,7.00
2019-03-26T06:59:10.129Z,7.30
2019-03-26T07:01:36.708Z,7.60
2019-03-26T07:04:03.184Z,7.70
2019-03-26T07:06:29.747Z,7.60
2019-03-26T07:08:56.393Z,7.20
2019-03-26T07:11:23.101Z,7.50
2019-03-26T07:13:49.542Z,7.40
2019-03-26T07:16:17.324Z,7.30
2019-03-26T07:18:43.903Z,7.50
2019-03-26T07:21:10.454Z,7.90
2019-03-26T07:23:37.235Z,8.20
2019-03-26T07:26:03.779Z,8.10
2019-03-26T07:28:31.605Z,8.40
2019-03-26T07:30:58.008Z,8.40
2019-03-26T07:33:24.608Z,8.60
2019-03-26T07:35:51.367Z,8.90
2019-03-26T07:38:18.602Z,9.00
2019-03-26T07:40:45.666Z,8.70
2019-03-26T07:43:12.561Z,8.60
2019-03-26T07:45:39.332Z,8.80
2019-03-26T07:48:05.917Z,9.00
2019-03-26T07:50:33.860Z,8.80
2019-03-26T07:53:00.913Z,8.90
2019-03-26T07:55:27.547Z,9.20
2019-03-26T07:57:54.314Z,9.10
2019-03-26T08:00:27.961Z,9.10
2019-03-26T08:02:54.609Z,9.20
2019-03-26T08:05:29.563Z,9.30
2019-03-26T08:07:58.225Z,9.50
2019-03-26T08:10:19.118Z,9.20
2019-03-26T08:12:45.790Z,9.20
2019-03-26T08:15:12.967Z,9.20
2019-03-26T08:17:39.717Z,9.20
2019-03-26T08:20:06.331Z,9.40
2019-03-26T08:22:33.193Z,10.10
2019-03-26T08:24:59.888Z,10.10
2019-03-26T08:27:26.716Z,10.10
2019-03-26T08:29:53.288Z,10.00
2019-03-26T08:32:20.136Z,10.20
2019-03-26T08:34:46.944Z,10.40
2019-03-26T08:37:14.921Z,10.30
2019-03-26T08:39:42.112Z,10.90
2019-03-26T08:42:10.016Z,10.60
2019-03-26T08:44:36.581Z,10.40
2019-03-26T08:47:03.349Z,10.20
2019-03-26T08:49:30.869Z,10.40
2019-03-26T08:51:57.952Z,10.50
2019-03-26T08:54:24.529Z,11.00
2019-03-26T08:56:50.970Z,11.30
2019-03-26T08:59:17.688Z,11.50
2019-03-26T09:01:44.373Z,11.80
2019-03-26T09:04:10.930Z,11.90
2019-03-26T09:06:37.387Z,11.60
2019-03-26T09:09:06.213Z,12.30
2019-03-26T09:11:32.752Z,11.90
2019-03-26T09:13:59.312Z,12.00
2019-03-26T09:16:25.800Z,12.10
2019-03-26T09:18:52.486Z,12.10
2019-03-26T09:21:19.274Z,12.00
2019-03-26T09:23:45.954Z,12.40
2019-03-26T09:26:12.623Z,12.80
2019-03-26T09:28:39.192Z,13.70
2019-03-26T09:31:05.939Z,14.10
2019-03-26T09:33:32.688Z,14.70
2019-03-26T09:35:59.296Z,16.20
2019-03-26T09:38:38.316Z,20.50
2019-03-26T09:40:54.339Z,23.40
2019-03-26T09:43:20.795Z,24.80
2019-03-26T09:45:47.277Z,25.40
2019-03-26T09:48:13.815Z,25.80
2019-03-26T09:50:40.293Z,25.90
2019-03-26T09:53:06.782Z,26.30
2019-03-26T09:55:34.485Z,25.70
2019-03-26T09:58:01.184Z,25.70
2019-03-26T10:00:28.033Z,28.20
2019-03-26T10:02:54.743Z,27.50
2019-03-26T10:05:21.393Z,26.90
2019-03-26T10:07:48.052Z,27.30
2019-03-26T10:10:14.730Z,27.50
2019-03-26T10:12:41.287Z,27.60
2019-03-26T10:15:07.725Z,27.00
2019-03-26T10:17:35.064Z,27.30
2019-03-26T10:20:02.539Z,26.60
2019-03-26T10:22:29.195Z,28.00
2019-03-26T10:24:55.804Z,27.50
2019-03-26T10:27:22.354Z,29.10
2019-03-26T10:29:50.759Z,30.30
2019-03-26T10:32:17.544Z,28.50
2019-03-26T10:34:44.299Z,30.30
2019-03-26T10:37:10.879Z,30.20
2019-03-26T10:39:37.521Z,31.00
2019-03-26T10:42:06.898Z,30.80
2019-03-26T10:44:32.618Z,30.00
2019-03-26T10:46:59.145Z,30.80
2019-03-26T10:49:25.811Z,30.60
2019-03-26T10:51:52.466Z,29.70
2019-03-26T10:54:19.058Z,29.00
2019-03-26T10:56:45.854Z,29.70
2019-03-26T10:59:12.524Z,30.70
2019-03-26T11:01:39.092Z,30.00
2019-03-26T11:04:07.671Z,30.50
2019-03-26T11:06:34.441Z,29.40
2019-03-26T11:09:01.014Z,28.50
2019-03-26T11:11:28.559Z,29.30
2019-03-26T11:13:58.651Z,29.00
2019-03-26T11:16:24.599Z,28.10
2019-03-26T11:18:51.146Z,27.80
2019-03-26T11:21:17.964Z,27.40
2019-03-26T11:23:44.544Z,27.60
2019-03-26T11:26:11.144Z,29.00
2019-03-26T11:28:37.938Z,29.60
2019-03-26T11:31:04.527Z,30.40
2019-03-26T11:33:31.196Z,28.80
2019-03-26T11:35:57.715Z,29.00
2019-03-26T11:38:24.419Z,28.60
2019-03-26T11:40:51.015Z,27.70
2019-03-26T11:43:17.604Z,26.90
2019-03-26T11:45:44.099Z,26.80
2019-03-26T11:48:10.714Z,26.40
2019-03-26T11:50:37.377Z,27.30
2019-03-26T11:53:04.056Z,27.10
2019-03-26T11:55:30.962Z,29.20
2019-03-26T11:57:57.721Z,28.70
2019-03-26T12:00:29.043Z,28.60
2019-03-26T12:02:55.668Z,29.20
2019-03-26T12:05:22.465Z,29.80
2019-03-26T12:07:49.227Z,28.80
2019-03-26T12:10:15.922Z,27.70
2019-03-26T12:12:42.578Z,25.50
2019-03-26T12:15:09.552Z,26.10
2019-03-26T12:17:36.134Z,26.70
2019-03-26T12:20:05.302Z,27.60
2019-03-26T12:22:32.441Z,26.40
2019-03-26T12:24:59.336Z,25.10
2019-03-26T12:27:26.507Z,25.20
2019-03-26T12:29:53.382Z,24.60
2019-03-26T12:32:20.132Z,21.80
2019-03-26T12:34:47.735Z,19.30
2019-03-26T12:37:14.637Z,17.80
2019-03-26T12:39:44.148Z,17.60
2019-03-26T12:42:09.736Z,20.60
2019-03-26T12:44:36.522Z,20.00
2019-03-26T12:47:03.089Z,22.40
2019-03-26T12:49:29.777Z,22.80
2019-03-26T12:51:56.409Z,23.40
2019-03-26T12:54:22.930Z,24.10
2019-03-26T12:56:49.613Z,24.20
2019-03-26T12:59:16.267Z,24.10
2019-03-26T13:01:43.042Z,24.20
2019-03-26T13:04:12.771Z,23.00
2019-03-26T13:06:37.915Z,24.20
2019-03-26T13:09:06.759Z,24.60
2019-03-26T13:11:33.465Z,23.30
2019-03-26T13:14:00.196Z,22.90
2019-03-26T13:16:26.763Z,23.20
2019-03-26T13:18:53.253Z,23.60
2019-03-26T13:21:20.024Z,23.00
2019-03-26T13:23:46.554Z,22.60
2019-03-26T13:26:13.860Z,22.80
2019-03-26T13:28:40.569Z,22.20
2019-03-26T13:31:07.177Z,22.70
2019-03-26T13:33:33.866Z,23.00
2019-03-26T13:36:00.432Z,22.30
2019-03-26T13:38:27.011Z,22.50
2019-03-26T13:40:53.592Z,22.90
2019-03-26T13:43:20.091Z,23.00
2019-03-26T13:45:46.849Z,22.30
2019-03-26T13:48:14.698Z,21.40
2019-03-26T13:50:41.241Z,21.30
2019-03-26T13:53:08.116Z,21.10
2019-03-26T13:55:34.822Z,22.40
2019-03-26T13:58:01.711Z,22.60
2019-03-26T14:00:36.102Z,22.10
2019-03-26T14:03:02.887Z,22.20
2019-03-26T14:05:31.322Z,20.90
2019-03-26T14:07:58.422Z,19.30
2019-03-26T14:10:24.980Z,18.30
2019-03-26T14:12:51.780Z,17.10
2019-03-26T14:15:19.549Z,16.30
2019-03-26T14:17:47.399Z,15.90
2019-03-26T14:20:15.113Z,15.50
2019-03-26T14:22:41.748Z,14.60
2019-03-26T14:25:08.208Z,14.50
2019-03-26T14:30:16.667Z,14.60
2019-03-26T14:32:43.333Z,14.60
2019-03-26T14:35:09.806Z,13.70
2019-03-26T14:37:50.261Z,13.30
2019-03-26T14:40:04.891Z,12.80
2019-03-26T14:42:31.554Z,13.00
2019-03-26T14:44:59.001Z,13.20
2019-03-26T14:47:25.828Z,13.30
2019-03-26T14:49:52.626Z,13.00
2019-03-26T14:52:19.085Z,12.90
2019-03-26T14:54:45.709Z,12.50
2019-03-26T14:57:12.385Z,12.50
2019-03-26T14:59:38.984Z,12.30
2019-03-26T15:02:05.570Z,12.20
2019-03-26T15:04:32.264Z,12.70
2019-03-26T15:06:58.864Z,12.50
2019-03-26T15:09:25.567Z,12.70
2019-03-26T15:11:52.258Z,12.30
2019-03-26T15:14:18.918Z,12.30
2019-03-26T15:16:45.659Z,12.20
2019-03-26T15:19:12.703Z,12.30
2019-03-26T15:21:39.480Z,12.50
2019-03-26T15:24:06.036Z,12.50
2019-03-26T15:26:32.619Z,12.40
2019-03-26T15:29:00.315Z,11.80
2019-03-26T15:31:27.045Z,11.90
2019-03-26T15:33:53.739Z,12.10
2019-03-26T15:36:20.378Z,11.80
2019-03-26T15:38:46.957Z,11.60
2019-03-26T15:41:21.558Z,11.60
2019-03-26T15:43:42.988Z,11.40
2019-03-26T15:46:09.559Z,11.40
2019-03-26T15:48:36.028Z,11.50
2019-03-26T15:51:02.511Z,11.50
2019-03-26T15:53:30.338Z,11.60
2019-03-26T15:55:56.919Z,11.30
2019-03-26T15:58:23.402Z,11.20
2019-03-26T16:00:49.882Z,11.20
2019-03-26T16:03:16.497Z,11.20
2019-03-26T16:05:43.016Z,11.10
2019-03-26T16:08:09.668Z,11.20
2019-03-26T16:10:36.337Z,10.90
2019-03-26T16:13:02.932Z,10.70
2019-03-26T16:15:38.646Z,10.40
2019-03-26T16:17:58.111Z,10.30
2019-03-26T16:20:24.796Z,10.30
2019-03-26T16:22:51.271Z,10.20
2019-03-26T16:25:17.855Z,9.70
2019-03-26T16:27:44.528Z,9.70
2019-03-26T16:30:11.163Z,9.90
2019-03-26T16:32:37.829Z,9.60
2019-03-26T16:35:04.812Z,9.40
2019-03-26T16:37:31.476Z,9.40
2019-03-26T16:39:59.074Z,9.30
2019-03-26T16:42:25.764Z,9.20
2019-03-26T16:44:52.507Z,9.10
2019-03-26T16:47:18.988Z,9.00
2019-03-26T16:49:45.583Z,8.80
2019-03-26T16:52:12.258Z,8.70
2019-03-26T16:54:38.708Z,8.60
2019-03-26T16:57:05.352Z,8.50
2019-03-26T16:59:31.898Z,8.40
2019-03-26T17:01:58.560Z,8.30
2019-03-26T17:04:25.151Z,8.20
2019-03-26T17:06:51.967Z,8.10
2019-03-26T17:09:18.583Z,8.00
2019-03-26T17:11:47.714Z,7.90
2019-03-26T17:14:16.217Z,7.90
2019-03-26T17:16:43.075Z,7.90
2019-03-26T17:19:10.091Z,7.80
2019-03-26T17:21:36.865Z,7.70
2019-03-26T17:24:03.464Z,7.70
2019-03-26T17:26:30.050Z,7.70
2019-03-26T17:28:56.693Z,7.70
2019-03-26T17:31:23.112Z,7.70
2019-03-26T17:33:50.780Z,7.70
2019-03-26T17:36:17.364Z,7.60
2019-03-26T17:38:44.055Z,7.30
2019-03-26T17:41:10.821Z,7.20
2019-03-26T17:43:37.420Z,7.10
2019-03-26T17:46:05.207Z,7.10
2019-03-26T17:48:31.763Z,7.20
2019-03-26T17:50:58.391Z,7.30
2019-03-26T17:53:24.872Z,7.30
2019-03-26T17:55:51.445Z,7.20
2019-03-26T17:58:18.141Z,7.10
2019-03-26T18:00:45.000Z,7.00
2019-03-26T18:03:25.162Z,6.80
2019-03-26T18:05:41.261Z,6.60
2019-03-26T18:08:07.801Z,6.70
2019-03-26T18:10:34.456Z,6.50
2019-03-26T18:13:01.211Z,6.50
2019-03-26T18:15:27.854Z,6.50
2019-03-26T18:17:54.739Z,6.40
2019-03-26T18:20:31.974Z,6.40
2019-03-26T18:22:49.993Z,6.40
2019-03-26T18:25:16.648Z,6.20
2019-03-26T18:27:43.487Z,6.00
2019-03-26T18:30:10.222Z,5.80
2019-03-26T18:32:36.989Z,5.60
2019-03-26T18:35:04.896Z,5.50
2019-03-26T18:37:31.550Z,5.30
2019-03-26T18:39:58.229Z,5.20
2019-03-26T18:42:24.898Z,5.00
2019-03-26T18:44:51.480Z,4.90
2019-03-26T18:47:18.391Z,4.80
2019-03-26T18:49:45.056Z,4.80
2019-03-26T18:52:11.504Z,4.70
2019-03-26T18:54:38.260Z,4.50
2019-03-26T18:57:04.966Z,4.40
2019-03-26T18:59:31.506Z,4.30
2019-03-26T19:01:58.190Z,4.20
2019-03-26T19:04:24.975Z,4.10
2019-03-26T19:06:51.782Z,4.10
2019-03-26T19:09:18.531Z,4.00
2019-03-26T19:11:45.296Z,4.00
2019-03-26T19:14:11.906Z,3.80
2019-03-26T19:16:39.943Z,3.80
2019-03-26T19:19:06.767Z,4.00
2019-03-26T19:21:33.447Z,4.00
2019-03-26T19:24:04.554Z,3.80
2019-03-26T19:26:28.704Z,3.60
2019-03-26T19:28:55.286Z,3.50
2019-03-26T19:31:22.026Z,3.40
2019-03-26T19:33:48.720Z,3.40
2019-03-26T19:36:15.368Z,3.20
2019-03-26T19:38:42.117Z,3.20
2019-03-26T19:41:08.751Z,3.10
2019-03-26T19:43:35.319Z,3.00
2019-03-26T19:46:02.001Z,3.10
2019-03-26T19:48:28.745Z,3.00
2019-03-26T19:50:55.422Z,3.00
2019-03-26T19:53:22.245Z,2.90
2019-03-26T19:55:48.796Z,2.70
2019-03-26T19:58:15.448Z,2.80
2019-03-26T20:00:41.947Z,2.70
2019-03-26T20:03:08.667Z,2.60
2019-03-26T20:05:35.686Z,2.60
2019-03-26T20:08:02.505Z,2.50
2019-03-26T20:10:29.232Z,2.40
2019-03-26T20:12:56.052Z,2.30
2019-03-26T20:15:23.593Z,2.40
2019-03-26T20:17:50.297Z,2.40
2019-03-26T20:20:17.060Z,2.40
2019-03-26T20:22:43.647Z,2.30
2019-03-26T20:25:10.373Z,2.40
2019-03-26T20:27:37.034Z,2.30
2019-03-26T20:30:04.514Z,2.30
2019-03-26T20:32:31.415Z,2.30
2019-03-26T20:34:58.168Z,2.30
2019-03-26T20:37:24.922Z,2.40
2019-03-26T20:39:51.573Z,2.40
2019-03-26T20:42:18.278Z,2.20
2019-03-26T20:44:44.895Z,2.30
2019-03-26T20:47:11.562Z,2.30
2019-03-26T20:49:38.296Z,2.30
2019-03-26T20:52:04.973Z,2.00
2019-03-26T20:54:31.625Z,2.00
2019-03-26T20:56:58.288Z,2.00
2019-03-26T20:59:25.131Z,1.90
2019-03-26T21:01:51.700Z,1.90
2019-03-26T21:04:18.632Z,1.90
2019-03-26T21:06:45.217Z,2.00
2019-03-26T21:09:11.893Z,2.00
2019-03-26T21:11:38.708Z,1.90
2019-03-26T21:14:05.462Z,1.70
2019-03-26T21:16:32.020Z,1.70
2019-03-26T21:18:58.715Z,1.70
2019-03-26T21:21:25.343Z,1.70
2019-03-26T21:23:52.012Z,1.60
2019-03-26T21:26:18.739Z,1.70
2019-03-26T21:28:45.411Z,1.60
2019-03-26T21:31:12.200Z,1.70
2019-03-26T21:33:38.762Z,1.60
2019-03-26T21:36:06.618Z,1.50
2019-03-26T21:38:33.203Z,1.60
2019-03-26T21:40:59.855Z,1.40
2019-03-26T21:43:26.445Z,1.40
2019-03-26T21:45:54.560Z,1.30
2019-03-26T21:48:21.011Z,1.30
2019-03-26T21:50:47.771Z,1.20
2019-03-26T21:53:14.418Z,1.30
2019-03-26T21:55:41.031Z,1.30
2019-03-26T21:58:07.725Z,1.20
2019-03-26T22:00:34.419Z,1.20
2019-03-26T22:03:01.158Z,1.10
2019-03-26T22:05:27.968Z,1.20
2019-03-26T22:07:54.666Z,1.20
2019-03-26T22:10:21.210Z,1.20
2019-03-26T22:12:47.854Z,1.10
2019-03-26T22:15:14.415Z,1.10
2019-03-26T22:17:40.964Z,1.10
2019-03-26T22:20:08.530Z,1.10
2019-03-26T22:22:35.167Z,1.10
2019-03-26T22:25:01.915Z,1.10
2019-03-26T22:27:28.554Z,1.20
2019-03-26T22:29:55.290Z,1.00
2019-03-26T22:32:21.843Z,0.80
2019-03-26T22:34:48.353Z,0.90
2019-03-26T22:37:14.905Z,0.90
2019-03-26T22:39:41.468Z,0.90
2019-03-26T22:42:08.176Z,0.80
2019-03-26T22:44:34.809Z,0.80
2019-03-26T22:47:01.199Z,0.80
2019-03-26T22:49:27.841Z,0.70
2019-03-26T22:51:54.382Z,0.70
2019-03-26T22:54:20.958Z,0.70
2019-03-26T22:56:47.588Z,0.70
2019-03-26T22:59:13.996Z,0.80
2019-03-26T23:01:40.668Z,0.80
2019-03-26T23:04:07.225Z,0.80
2019-03-26T23:06:33.881Z,1.00
2019-03-26T23:09:00.455Z,1.20
2019-03-26T23:11:27.147Z,1.30
2019-03-26T23:13:53.729Z,1.50
2019-03-26T23:16:20.275Z,1.70
2019-03-26T23:18:47.388Z,1.60
2019-03-26T23:21:14.047Z,1.60
2019-03-26T23:23:40.544Z,1.60
2019-03-26T23:26:07.196Z,1.70
2019-03-26T23:28:33.755Z,1.70
2019-03-26T23:31:00.422Z,1.80
2019-03-26T23:33:27.300Z,1.90
2019-03-26T23:35:53.848Z,1.90
2019-03-26T23:38:20.442Z,2.10
2019-03-26T23:40:47.002Z,2.10
2019-03-26T23:43:13.578Z,2.10
2019-03-26T23:45:40.152Z,2.10
2019-03-26T23:48:06.929Z,2.10
2019-03-26T23:50:33.416Z,2.20
2019-03-26T23:53:00.074Z,2.10
2019-03-26T23:55:26.563Z,2.10
2019-03-26T23:57:53.230Z,2.20
